Time;durP1;ratioP1;P1;durP2;ratioP2;P2;SDS_P1;SDS_P2;PMS_P1;PMS_P2;Temp;Humidity;BMP_temperature;BMP_pressure;BME280_temperature;BME280_humidity;BME280_pressure;Samples;Min_cycle;Max_cycle;Signal;HPM_P1;HPM_P2
2024/01/21 00:01:16;;;;;;;;;;;;;;;-8.51;89.82;101838.50;4947214;28;19934;-81
2024/01/21 00:03:42;;;;;;;;;;;;;;;-8.36;90.04;101838.84;4944461;28;20025;-81
2024/01/21 00:06:09;;;;;;;;;;;;;;;-8.29;90.17;101830.06;4943973;28;19993;-81
2024/01/21 00:08:36;;;;;;;;;;;;;;;-8.00;89.93;101818.84;4942872;28;19926;-81
2024/01/21 00:11:02;;;;;;;;;;;;;;;-8.00;89.06;101817.19;4944177;28;19934;-80
2024/01/21 00:13:29;;;;;;;;;;;;;;;-8.12;89.13;101814.53;4934206;28;19930;-81
2024/01/21 00:15:56;;;;;;;;;;;;;;;-8.13;89.09;101815.28;4947959;28;19926;-80
2024/01/21 00:18:22;;;;;;;;;;;;;;;-8.35;89.01;101809.19;4947385;28;19930;-81
2024/01/21 00:20:49;;;;;;;;;;;;;;;-8.12;89.45;101804.34;4943136;28;19926;-81
2024/01/21 00:23:16;;;;;;;;;;;;;;;-7.92;88.59;101802.50;4945585;28;19934;-81
2024/01/21 00:25:43;;;;;;;;;;;;;;;-8.34;88.25;101795.69;4946522;28;19927;-81
2024/01/21 00:28:10;;;;;;;;;;;;;;;-8.24;89.05;101786.41;4945135;28;19936;-80
2024/01/21 00:30:36;;;;;;;;;;;;;;;-8.42;89.47;101798.47;4930643;29;19973;-80
2024/01/21 00:33:03;;;;;;;;;;;;;;;-8.27;89.36;101803.06;4947899;28;19926;-81
2024/01/21 00:35:30;;;;;;;;;;;;;;;-8.64;89.00;101798.38;4946267;28;19931;-82
2024/01/21 00:37:56;;;;;;;;;;;;;;;-8.65;89.29;101788.09;4949130;28;20034;-80
2024/01/21 00:40:23;;;;;;;;;;;;;;;-8.14;89.01;101800.78;4947236;28;19935;-81
2024/01/21 00:42:49;;;;;;;;;;;;;;;-8.33;88.86;101790.72;4947883;28;19957;-81
2024/01/21 00:45:16;;;;;;;;;;;;;;;-8.28;88.35;101789.44;4947084;28;20025;-81
2024/01/21 00:47:43;;;;;;;;;;;;;;;-8.64;88.48;101782.25;4929993;29;19926;-81
2024/01/21 00:50:10;;;;;;;;;;;;;;;-8.78;88.77;101781.94;4941935;28;19926;-81
2024/01/21 00:52:36;;;;;;;;;;;;;;;-8.52;88.77;101773.06;4953956;28;19934;-81
2024/01/21 00:55:03;;;;;;;;;;;;;;;-8.85;88.92;101774.56;4953639;28;19926;-81
2024/01/21 00:57:30;;;;;;;;;;;;;;;-8.57;88.99;101766.72;4956174;28;19930;-81
2024/01/21 00:59:56;;;;;;;;;;;;;;;-8.68;88.68;101777.66;4951086;28;19926;-80
2024/01/21 01:02:24;;;;;;;;;;;;;;;-9.17;88.61;101774.38;4932730;29;19927;-81
2024/01/21 01:04:51;;;;;;;;;;;;;;;-9.20;88.90;101775.00;4950870;28;20310;-81
2024/01/21 01:07:18;;;;;;;;;;;;;;;-9.26;89.06;101789.75;4941710;28;19969;-81
2024/01/21 01:09:44;;;;;;;;;;;;;;;-9.16;88.72;101787.22;4947412;28;19930;-80
2024/01/21 01:12:11;;;;;;;;;;;;;;;-9.22;89.23;101775.66;4954317;28;19927;-81
2024/01/21 01:14:39;;;;;;;;;;;;;;;-9.10;89.06;101782.66;4937380;29;19926;-81
2024/01/21 01:17:06;;;;;;;;;;;;;;;-8.96;89.04;101775.34;4949399;28;19934;-82
2024/01/21 01:19:33;;;;;;;;;;;;;;;-9.45;88.08;101787.25;4942948;28;19926;-80
2024/01/21 01:22:02;;;;;;;;;;;;;;;-9.45;88.45;101779.63;4953935;28;19951;-81
2024/01/21 01:24:28;;;;;;;;;;;;;;;-9.54;88.68;101792.44;4956473;28;19926;-79
2024/01/21 01:26:55;;;;;;;;;;;;;;;-9.47;88.74;101788.75;4954774;28;19926;-80
2024/01/21 01:29:22;;;;;;;;;;;;;;;-9.53;88.64;101791.69;4948836;28;19933;-81
2024/01/21 01:31:48;;;;;;;;;;;;;;;-9.29;88.41;101792.91;4947919;28;19937;-81
2024/01/21 01:34:15;;;;;;;;;;;;;;;-9.10;87.81;101792.84;4941499;28;19933;-80
2024/01/21 01:36:42;;;;;;;;;;;;;;;-9.13;87.31;101794.25;4944864;28;20009;-77
2024/01/21 01:39:09;;;;;;;;;;;;;;;-9.15;87.09;101803.38;4943173;28;19935;-78
2024/01/21 01:41:36;;;;;;;;;;;;;;;-9.12;86.83;101794.38;4942405;28;20382;-79
2024/01/21 01:44:02;;;;;;;;;;;;;;;-9.01;86.64;101797.81;4946567;28;19933;-78
2024/01/21 01:46:29;;;;;;;;;;;;;;;-9.17;86.11;101795.59;4925895;28;19962;-79
2024/01/21 01:48:56;;;;;;;;;;;;;;;-9.16;86.54;101788.88;4942870;28;19938;-79
2024/01/21 01:51:23;;;;;;;;;;;;;;;-9.24;86.40;101785.66;4950480;28;19981;-79
2024/01/21 01:53:50;;;;;;;;;;;;;;;-9.56;86.39;101783.78;4943516;28;19926;-79
2024/01/21 01:56:17;;;;;;;;;;;;;;;-9.76;86.90;101784.59;4943461;28;19934;-79
2024/01/21 01:58:44;;;;;;;;;;;;;;;-9.95;87.55;101782.06;4946037;28;19938;-79
2024/01/21 02:01:10;;;;;;;;;;;;;;;-9.40;88.00;101780.03;4942759;28;19985;-80
2024/01/21 02:03:37;;;;;;;;;;;;;;;-8.95;87.49;101780.53;4930811;29;19945;-80
2024/01/21 02:06:04;;;;;;;;;;;;;;;-8.96;86.59;101780.41;4942338;28;19930;-79
2024/01/21 02:08:31;;;;;;;;;;;;;;;-9.87;86.19;101786.16;4941897;28;19935;-79
2024/01/21 02:10:57;;;;;;;;;;;;;;;-9.70;86.79;101790.22;4943883;28;19926;-79
2024/01/21 02:13:24;;;;;;;;;;;;;;;-10.00;87.04;101788.38;4944348;28;19926;-79
2024/01/21 02:15:50;;;;;;;;;;;;;;;-9.74;86.83;101782.19;4941432;28;19934;-78
2024/01/21 02:18:17;;;;;;;;;;;;;;;-9.83;87.05;101783.16;4947036;28;19958;-80
2024/01/21 02:20:44;;;;;;;;;;;;;;;-9.75;86.91;101770.22;4943152;28;20030;-79
2024/01/21 02:23:11;;;;;;;;;;;;;;;-10.07;86.75;101771.69;4940220;28;19930;-79
2024/01/21 02:25:37;;;;;;;;;;;;;;;-9.85;87.17;101768.53;4939626;28;19926;-80
2024/01/21 02:28:04;;;;;;;;;;;;;;;-9.93;87.39;101761.84;4941962;28;19934;-80
2024/01/21 02:30:31;;;;;;;;;;;;;;;-10.09;87.20;101768.16;4943395;28;19930;-79
2024/01/21 02:32:57;;;;;;;;;;;;;;;-9.86;87.15;101761.66;4928836;29;20339;-79
2024/01/21 02:35:24;;;;;;;;;;;;;;;-9.97;87.29;101763.25;4945687;28;19958;-79
2024/01/21 02:37:50;;;;;;;;;;;;;;;-9.95;86.82;101756.66;4943032;28;19941;-78
2024/01/21 02:40:17;;;;;;;;;;;;;;;-10.29;86.98;101758.75;4948874;28;19941;-80
2024/01/21 02:42:44;;;;;;;;;;;;;;;-10.05;87.81;101751.50;4928017;28;19927;-79
2024/01/21 02:45:11;;;;;;;;;;;;;;;-10.15;87.96;101750.72;4945349;28;19936;-80
2024/01/21 02:47:37;;;;;;;;;;;;;;;-10.41;88.40;101748.41;4941112;28;19993;-78
2024/01/21 02:50:04;;;;;;;;;;;;;;;-10.12;88.73;101747.56;4929626;29;20014;-80
2024/01/21 02:52:31;;;;;;;;;;;;;;;-9.89;88.55;101739.44;4934815;28;20325;-78
2024/01/21 02:54:57;;;;;;;;;;;;;;;-10.11;88.12;101735.75;4946019;28;19931;-79
2024/01/21 02:57:24;;;;;;;;;;;;;;;-10.18;88.98;101737.75;4944303;28;19927;-79
2024/01/21 02:59:51;;;;;;;;;;;;;;;-9.70;88.96;101735.94;4944115;28;19978;-80
2024/01/21 03:02:17;;;;;;;;;;;;;;;-9.92;89.19;101733.16;4925469;28;19935;-79
2024/01/21 03:04:45;;;;;;;;;;;;;;;-10.07;89.31;101732.72;4936803;28;19926;-79
2024/01/21 03:07:12;;;;;;;;;;;;;;;-9.87;89.73;101739.56;4943133;28;19933;-81
2024/01/21 03:09:38;;;;;;;;;;;;;;;-9.55;89.88;101738.94;4927289;29;19934;-79
2024/01/21 03:12:05;;;;;;;;;;;;;;;-10.00;89.68;101737.59;4918409;28;20001;-81
2024/01/21 03:14:32;;;;;;;;;;;;;;;-9.82;89.73;101734.13;4928265;28;19927;-80
2024/01/21 03:16:58;;;;;;;;;;;;;;;-9.98;90.11;101738.59;4929178;28;19931;-80
2024/01/21 03:19:25;;;;;;;;;;;;;;;-9.89;90.31;101736.88;4944308;28;19930;-81
2024/01/21 03:21:52;;;;;;;;;;;;;;;-10.06;90.31;101731.97;4943018;28;19981;-80
2024/01/21 03:24:18;;;;;;;;;;;;;;;-10.01;90.75;101730.72;4941434;28;19942;-78
2024/01/21 03:26:45;;;;;;;;;;;;;;;-10.02;90.96;101722.22;4945552;28;19997;-81
2024/01/21 03:29:11;;;;;;;;;;;;;;;-9.95;91.01;101726.16;4948013;28;19954;-80
2024/01/21 03:31:38;;;;;;;;;;;;;;;-9.91;91.10;101719.72;4942163;28;19938;-80
2024/01/21 03:34:05;;;;;;;;;;;;;;;-9.89;91.16;101716.56;4943959;28;19926;-80
2024/01/21 03:36:31;;;;;;;;;;;;;;;-9.88;91.31;101718.31;4943319;28;19930;-81
2024/01/21 03:38:58;;;;;;;;;;;;;;;-9.76;91.29;101718.53;4943974;28;19935;-81
2024/01/21 03:41:25;;;;;;;;;;;;;;;-9.68;91.31;101711.56;4941435;28;19926;-81
2024/01/21 03:43:51;;;;;;;;;;;;;;;-9.67;91.40;101703.19;4944961;28;19990;-81
2024/01/21 03:46:18;;;;;;;;;;;;;;;-9.36;91.36;101700.72;4944031;28;19939;-81
2024/01/21 03:48:44;;;;;;;;;;;;;;;-9.49;91.32;101701.31;4942229;28;20010;-80
2024/01/21 03:51:11;;;;;;;;;;;;;;;-9.30;91.17;101697.06;4927823;28;19931;-81
2024/01/21 03:53:39;;;;;;;;;;;;;;;-9.18;91.39;101679.41;4941864;28;20386;-80
2024/01/21 03:56:06;;;;;;;;;;;;;;;-9.17;91.16;101682.81;4940015;28;19930;-79
2024/01/21 03:58:33;;;;;;;;;;;;;;;-9.12;91.17;101679.91;4940899;28;19942;-81
2024/01/21 04:00:59;;;;;;;;;;;;;;;-9.10;90.70;101678.38;4929756;28;20014;-80
2024/01/21 04:03:26;;;;;;;;;;;;;;;-9.16;90.68;101680.41;4940551;28;19958;-81
2024/01/21 04:05:53;;;;;;;;;;;;;;;-9.13;90.91;101677.22;4941930;28;19951;-80
2024/01/21 04:08:20;;;;;;;;;;;;;;;-9.12;91.30;101684.13;4944486;28;20041;-80
2024/01/21 04:10:47;;;;;;;;;;;;;;;-9.13;91.20;101680.66;4925329;29;19930;-79
2024/01/21 04:13:14;;;;;;;;;;;;;;;-9.02;91.16;101680.66;4946739;28;19927;-80
2024/01/21 04:15:40;;;;;;;;;;;;;;;-9.03;91.42;101692.50;4943453;28;19933;-80
2024/01/21 04:18:07;;;;;;;;;;;;;;;-9.01;91.50;101690.97;4949479;28;19926;-81
2024/01/21 04:20:34;;;;;;;;;;;;;;;-9.03;91.31;101696.72;4931482;28;19926;-80
2024/01/21 04:23:00;;;;;;;;;;;;;;;-9.08;91.62;101703.94;4945712;28;19927;-81
2024/01/21 04:25:27;;;;;;;;;;;;;;;-9.00;91.23;101697.84;4943272;28;20366;-80
2024/01/21 04:27:53;;;;;;;;;;;;;;;-8.86;91.10;101695.53;4945360;28;19926;-81
2024/01/21 04:30:20;;;;;;;;;;;;;;;-8.97;91.60;101695.56;4945592;28;19927;-81
2024/01/21 04:32:47;;;;;;;;;;;;;;;-8.94;91.34;101697.47;4945125;28;19927;-81
2024/01/21 04:35:14;;;;;;;;;;;;;;;-8.98;91.64;101690.34;4930399;28;19926;-81
2024/01/21 04:37:41;;;;;;;;;;;;;;;-8.99;91.55;101694.53;4943964;28;19927;-80
2024/01/21 04:40:08;;;;;;;;;;;;;;;-9.04;91.86;101690.72;4944624;28;19938;-79
2024/01/21 04:42:34;;;;;;;;;;;;;;;-8.86;92.16;101690.47;4925989;28;19926;-80
2024/01/21 04:45:02;;;;;;;;;;;;;;;-8.84;91.62;101694.91;4926219;29;19957;-79
2024/01/21 04:47:28;;;;;;;;;;;;;;;-8.85;91.64;101703.31;4949866;28;19945;-81
2024/01/21 04:49:55;;;;;;;;;;;;;;;-8.81;91.73;101702.81;4930480;28;19967;-81
2024/01/21 04:52:22;;;;;;;;;;;;;;;-8.76;91.59;101699.00;4948536;28;19937;-81
2024/01/21 04:54:48;;;;;;;;;;;;;;;-8.72;91.79;101686.53;4948245;28;19926;-81
2024/01/21 04:57:15;;;;;;;;;;;;;;;-8.75;91.76;101685.53;4949714;28;19946;-79
2024/01/21 04:59:42;;;;;;;;;;;;;;;-8.68;92.02;101701.28;4944443;28;19927;-81
2024/01/21 05:02:08;;;;;;;;;;;;;;;-8.62;92.13;101704.34;4942413;28;19938;-81
2024/01/21 05:04:35;;;;;;;;;;;;;;;-8.63;92.04;101700.00;4945779;28;19927;-81
2024/01/21 05:07:02;;;;;;;;;;;;;;;-8.61;91.79;101713.75;4949419;28;19934;-81
2024/01/21 05:09:29;;;;;;;;;;;;;;;-8.54;91.58;101690.59;4942845;29;19934;-81
2024/01/21 05:11:55;;;;;;;;;;;;;;;-8.55;91.59;101688.78;4943880;28;19970;-81
2024/01/21 05:14:22;;;;;;;;;;;;;;;-8.54;91.90;101684.59;4945382;28;20021;-81
2024/01/21 05:16:49;;;;;;;;;;;;;;;-8.50;91.67;101684.97;4944721;28;19969;-81
2024/01/21 05:19:16;;;;;;;;;;;;;;;-8.56;91.56;101687.00;4942644;28;19934;-81
2024/01/21 05:21:43;;;;;;;;;;;;;;;-8.65;91.58;101684.59;4941325;28;19930;-81
2024/01/21 05:24:09;;;;;;;;;;;;;;;-8.51;91.86;101677.22;4940140;28;19927;-81
2024/01/21 05:26:46;;;;;;;;;;;;;;;-8.55;91.82;101683.69;4940706;28;19927;-80
2024/01/21 05:29:12;;;;;;;;;;;;;;;-8.60;91.57;101687.53;4931983;28;20379;-81
2024/01/21 05:31:39;;;;;;;;;;;;;;;-8.54;91.72;101684.59;4910382;29;19926;-81
2024/01/21 05:34:06;;;;;;;;;;;;;;;-8.52;91.55;101683.06;4941121;28;19927;-80
2024/01/21 05:36:33;;;;;;;;;;;;;;;-8.44;91.85;101672.72;4940376;28;19974;-80
2024/01/21 05:39:00;;;;;;;;;;;;;;;-8.47;91.76;101682.69;4943051;28;19958;-81
2024/01/21 05:41:28;;;;;;;;;;;;;;;-8.43;91.62;101679.59;4944349;28;19926;-80
2024/01/21 05:43:55;;;;;;;;;;;;;;;-8.43;91.58;101673.59;4938504;28;19927;-81
2024/01/21 05:46:22;;;;;;;;;;;;;;;-8.31;91.66;101678.78;4942605;28;19982;-82
2024/01/21 05:48:49;;;;;;;;;;;;;;;-8.39;91.53;101681.59;4944824;28;19926;-81
2024/01/21 05:51:16;;;;;;;;;;;;;;;-8.33;91.63;101682.88;4944887;29;19930;-81
2024/01/21 05:53:42;;;;;;;;;;;;;;;-8.29;91.62;101683.22;4943177;28;19956;-81
2024/01/21 05:56:10;;;;;;;;;;;;;;;-8.32;91.48;101680.44;4946532;28;19939;-80
2024/01/21 05:58:36;;;;;;;;;;;;;;;-8.26;91.68;101677.50;4941959;28;19934;-80
2024/01/21 06:01:03;;;;;;;;;;;;;;;-8.29;91.92;101673.03;4930941;28;19926;-81
2024/01/21 06:03:30;;;;;;;;;;;;;;;-8.25;91.71;101676.75;4928953;29;19962;-81
2024/01/21 06:05:57;;;;;;;;;;;;;;;-8.24;92.06;101678.50;4944280;28;20048;-80
2024/01/21 06:08:23;;;;;;;;;;;;;;;-8.17;91.70;101673.13;4943390;28;19926;-80
2024/01/21 06:10:50;;;;;;;;;;;;;;;-8.21;92.04;101671.13;4947011;28;19926;-82
2024/01/21 06:13:17;;;;;;;;;;;;;;;-8.20;91.95;101672.91;4928906;28;19942;-81
2024/01/21 06:15:43;;;;;;;;;;;;;;;-8.16;92.13;101663.84;4931503;28;19941;-82
2024/01/21 06:18:10;;;;;;;;;;;;;;;-8.14;92.10;101659.75;4946547;28;19933;-81
2024/01/21 06:20:37;;;;;;;;;;;;;;;-8.16;92.06;101664.72;4930395;28;19927;-81
2024/01/21 06:23:03;;;;;;;;;;;;;;;-8.14;92.14;101652.13;4944298;28;19934;-81
2024/01/21 06:25:30;;;;;;;;;;;;;;;-8.11;92.11;101652.34;4941242;28;19930;-80
2024/01/21 06:27:57;;;;;;;;;;;;;;;-8.10;92.33;101655.03;4943378;28;19937;-81
2024/01/21 06:30:24;;;;;;;;;;;;;;;-8.07;92.50;101664.56;4946181;28;19931;-80
2024/01/21 06:32:50;;;;;;;;;;;;;;;-8.09;92.19;101661.91;4928759;28;19965;-81
2024/01/21 06:35:28;;;;;;;;;;;;;;;-8.07;92.29;101675.66;4928537;28;20040;-81
2024/01/21 06:37:55;;;;;;;;;;;;;;;-8.02;92.50;101672.56;4942784;28;19926;-81
2024/01/21 06:40:21;;;;;;;;;;;;;;;-8.04;92.31;101669.91;4945314;28;19941;-80
2024/01/21 06:42:48;;;;;;;;;;;;;;;-7.98;92.24;101666.97;4940188;28;19927;-81
2024/01/21 06:45:15;;;;;;;;;;;;;;;-7.97;92.34;101666.19;4946492;28;19926;-80
2024/01/21 06:47:42;;;;;;;;;;;;;;;-7.96;92.22;101665.44;4940627;28;20017;-81
2024/01/21 06:50:10;;;;;;;;;;;;;;;-8.00;92.16;101660.88;4943993;28;19978;-80
2024/01/21 06:52:36;;;;;;;;;;;;;;;-7.92;92.07;101665.81;4924720;28;20030;-81
2024/01/21 06:55:03;;;;;;;;;;;;;;;-7.89;92.00;101670.25;4939208;28;19930;-81
2024/01/21 06:57:30;;;;;;;;;;;;;;;-7.82;92.02;101666.50;4941140;28;20014;-79
2024/01/21 06:59:57;;;;;;;;;;;;;;;-7.81;92.19;101668.31;4943732;28;19927;-80
2024/01/21 07:02:24;;;;;;;;;;;;;;;-7.80;92.15;101650.56;4942070;28;19935;-81
2024/01/21 07:04:50;;;;;;;;;;;;;;;-7.79;91.90;101643.81;4928873;28;19926;-81
2024/01/21 07:07:17;;;;;;;;;;;;;;;-7.76;91.83;101647.50;4943372;28;19934;-81
2024/01/21 07:09:44;;;;;;;;;;;;;;;-7.71;91.84;101656.38;4943774;28;19930;-79
2024/01/21 07:12:10;;;;;;;;;;;;;;;-7.68;91.79;101656.63;4956754;28;19949;-82
2024/01/21 07:14:37;;;;;;;;;;;;;;;-7.68;91.81;101658.28;4953960;28;19994;-80
2024/01/21 07:17:04;;;;;;;;;;;;;;;-7.58;91.92;101663.31;4948864;28;19938;-81
2024/01/21 07:19:31;;;;;;;;;;;;;;;-7.53;91.82;101656.03;4930798;28;19930;-83
2024/01/21 07:21:58;;;;;;;;;;;;;;;-7.47;91.78;101650.50;4949271;28;20381;-81
2024/01/21 07:24:25;;;;;;;;;;;;;;;-7.40;91.89;101658.78;4953580;28;19926;-81
2024/01/21 07:26:52;;;;;;;;;;;;;;;-7.32;91.93;101651.69;4944688;29;19931;-80
2024/01/21 07:29:18;;;;;;;;;;;;;;;-7.02;92.25;101647.16;4943629;28;19934;-82
2024/01/21 07:31:45;;;;;;;;;;;;;;;-7.06;91.98;101653.66;4921284;28;19963;-82
2024/01/21 07:34:12;;;;;;;;;;;;;;;-6.96;92.19;101668.03;4940741;28;19941;-86
2024/01/21 07:36:39;;;;;;;;;;;;;;;-6.84;92.54;101675.69;4942720;28;19982;-84
2024/01/21 07:39:06;;;;;;;;;;;;;;;-6.75;92.47;101670.38;4952141;28;19926;-84
2024/01/21 07:41:33;;;;;;;;;;;;;;;-6.77;92.44;101679.63;4945493;28;20026;-85
2024/01/21 07:44:00;;;;;;;;;;;;;;;-6.69;92.45;101689.63;4950338;28;19930;-85
2024/01/21 07:46:26;;;;;;;;;;;;;;;-6.64;92.49;101679.75;4953691;28;19956;-84
2024/01/21 07:48:53;;;;;;;;;;;;;;;-6.62;92.75;101685.84;4935822;28;19927;-84
2024/01/21 07:51:20;;;;;;;;;;;;;;;-6.65;92.77;101680.50;4952038;28;19926;-83
2024/01/21 07:53:47;;;;;;;;;;;;;;;-6.59;92.60;101697.97;4941745;29;19978;-85
2024/01/21 07:56:14;;;;;;;;;;;;;;;-6.61;92.56;101697.84;4950969;29;19962;-84
2024/01/21 07:58:40;;;;;;;;;;;;;;;-6.54;92.49;101684.75;4952051;28;20022;-86
2024/01/21 08:01:11;;;;;;;;;;;;;;;-6.50;92.52;101666.31;4957287;28;19933;-85
2024/01/21 08:03:39;;;;;;;;;;;;;;;-6.48;92.49;101658.78;4952173;28;19927;-85
2024/01/21 08:06:07;;;;;;;;;;;;;;;-6.49;92.64;101657.91;4930006;28;19933;-84
2024/01/21 08:08:35;;;;;;;;;;;;;;;-6.43;92.54;101672.78;4945537;28;19935;-85
2024/01/21 08:11:02;;;;;;;;;;;;;;;-6.41;92.47;101681.44;4944466;28;19926;-84
2024/01/21 08:13:28;;;;;;;;;;;;;;;-6.37;92.19;101683.44;4948904;28;19934;-84
2024/01/21 08:15:55;;;;;;;;;;;;;;;-6.30;92.43;101669.44;4956807;28;19934;-84
2024/01/21 08:18:22;;;;;;;;;;;;;;;-6.31;92.15;101663.44;4936188;28;19957;-84
2024/01/21 08:20:50;;;;;;;;;;;;;;;-6.21;92.34;101669.22;4949835;28;19934;-83
2024/01/21 08:23:17;;;;;;;;;;;;;;;-6.21;92.14;101664.09;4937898;28;19941;-84
2024/01/21 08:25:44;;;;;;;;;;;;;;;-6.19;92.19;101658.31;4936959;28;20386;-83
2024/01/21 08:28:11;;;;;;;;;;;;;;;-6.16;92.13;101668.75;4950017;28;19927;-85
2024/01/21 08:30:38;;;;;;;;;;;;;;;-6.11;92.15;101681.91;4953765;28;19926;-84
2024/01/21 08:33:04;;;;;;;;;;;;;;;-6.05;92.03;101694.19;4949583;28;19930;-84
2024/01/21 08:35:31;;;;;;;;;;;;;;;-6.05;91.79;101704.44;4943409;28;19927;-84
2024/01/21 08:38:00;;;;;;;;;;;;;;;-6.04;91.80;101698.56;4934072;28;19941;-84
2024/01/21 08:40:26;;;;;;;;;;;;;;;-5.96;91.66;101708.50;4958643;28;19926;-84
2024/01/21 08:42:53;;;;;;;;;;;;;;;-5.86;91.69;101706.63;4942503;28;19927;-83
2024/01/21 08:45:19;;;;;;;;;;;;;;;-5.88;91.38;101697.94;4951169;28;19926;-84
2024/01/21 08:47:46;;;;;;;;;;;;;;;-5.76;91.37;101696.28;4955913;28;19934;-83
2024/01/21 08:50:13;;;;;;;;;;;;;;;-5.69;91.37;101693.38;4949928;28;19993;-84
2024/01/21 08:52:40;;;;;;;;;;;;;;;-5.73;91.15;101688.81;4947502;29;19927;-83
2024/01/21 08:55:06;;;;;;;;;;;;;;;-5.64;90.99;101680.91;4945604;28;19994;-84
2024/01/21 08:57:33;;;;;;;;;;;;;;;-5.60;90.92;101677.78;4948080;28;19931;-84
2024/01/21 09:00:00;;;;;;;;;;;;;;;-5.63;90.97;101673.34;4938157;29;19977;-84
2024/01/21 09:02:27;;;;;;;;;;;;;;;-5.64;90.74;101651.09;4952411;28;19933;-84
2024/01/21 09:04:53;;;;;;;;;;;;;;;-5.62;90.78;101662.34;4948517;28;20245;-86
2024/01/21 09:07:20;;;;;;;;;;;;;;;-5.58;90.49;101673.66;4951851;28;19926;-85
2024/01/21 09:09:47;;;;;;;;;;;;;;;-5.57;90.42;101693.34;4958155;28;19926;-84
2024/01/21 09:12:14;;;;;;;;;;;;;;;-5.57;90.29;101701.03;4953164;28;20345;-85
2024/01/21 09:14:41;;;;;;;;;;;;;;;-5.52;90.43;101703.88;4923991;29;19927;-85
2024/01/21 09:17:08;;;;;;;;;;;;;;;-5.47;90.26;101712.78;4948619;28;19926;-85
2024/01/21 09:19:35;;;;;;;;;;;;;;;-5.44;89.98;101713.00;4929371;29;20382;-85
2024/01/21 09:22:03;;;;;;;;;;;;;;;-5.31;90.06;101702.84;4943044;28;19926;-86
2024/01/21 09:24:30;;;;;;;;;;;;;;;-5.31;90.20;101697.72;4926135;28;20014;-86
2024/01/21 09:26:57;;;;;;;;;;;;;;;-5.24;90.01;101699.91;4947818;28;19933;-86
2024/01/21 09:29:23;;;;;;;;;;;;;;;-5.24;89.93;101692.25;4928707;29;19926;-86
2024/01/21 09:31:55;;;;;;;;;;;;;;;-5.18;89.93;101698.56;4950455;28;19937;-86
2024/01/21 09:34:21;;;;;;;;;;;;;;;-5.17;89.82;101678.19;4957104;28;19990;-85
2024/01/21 09:36:49;;;;;;;;;;;;;;;-5.16;89.97;101691.88;4954474;28;19926;-86
2024/01/21 09:39:15;;;;;;;;;;;;;;;-5.08;89.69;101685.63;4943162;28;19930;-86
2024/01/21 09:41:49;;;;;;;;;;;;;;;-5.09;89.50;101678.72;4955160;28;20054;-87
2024/01/21 09:44:17;;;;;;;;;;;;;;;-5.01;89.53;101677.56;4932919;28;19938;-86
2024/01/21 09:46:50;;;;;;;;;;;;;;;-5.03;89.39;101666.31;4936132;29;20002;-85
2024/01/21 09:49:17;;;;;;;;;;;;;;;-5.02;89.30;101673.22;4946113;28;19937;-85
2024/01/21 09:51:44;;;;;;;;;;;;;;;-4.92;89.08;101677.31;4934747;28;20279;-86
2024/01/21 09:54:10;;;;;;;;;;;;;;;-4.93;88.85;101673.84;4930324;29;19927;-86
2024/01/21 09:56:37;;;;;;;;;;;;;;;-4.99;88.40;101704.16;4934046;29;20466;-86
2024/01/21 09:59:04;;;;;;;;;;;;;;;-4.83;88.60;101728.25;4936612;29;19926;-86
2024/01/21 10:01:32;;;;;;;;;;;;;;;-4.75;88.46;101748.47;4919396;29;19927;-87
2024/01/21 10:04:04;;;;;;;;;;;;;;;-4.68;88.34;101760.00;4946088;28;19926;-87
2024/01/21 10:06:34;;;;;;;;;;;;;;;-4.71;88.28;101782.84;4919248;28;19926;-85
2024/01/21 10:09:24;;;;;;;;;;;;;;;-4.65;88.44;101785.88;4791904;28;19996;-85
2024/01/21 10:11:57;;;;;;;;;;;;;;;-4.73;87.87;101787.88;4939364;28;19968;-85
2024/01/21 10:14:26;;;;;;;;;;;;;;;-4.69;87.74;101783.88;4924053;28;19938;-85
2024/01/21 10:16:53;;;;;;;;;;;;;;;-4.63;87.79;101773.16;4918896;29;19961;-84
2024/01/21 10:19:27;;;;;;;;;;;;;;;-4.49;87.90;101774.06;4943744;28;19926;-85
2024/01/21 10:22:10;;;;;;;;;;;;;;;-4.39;87.62;101773.91;4933761;28;19926;-86
2024/01/21 10:24:38;;;;;;;;;;;;;;;-4.34;87.61;101772.53;4944999;28;19926;-84
2024/01/21 10:27:05;;;;;;;;;;;;;;;-4.43;87.45;101771.91;4923591;28;19997;-85
2024/01/21 10:29:34;;;;;;;;;;;;;;;-4.28;87.36;101772.06;4950573;28;20025;-84
2024/01/21 10:32:00;;;;;;;;;;;;;;;-4.25;87.52;101772.25;4941180;28;19931;-84
2024/01/21 10:34:27;;;;;;;;;;;;;;;-4.26;87.25;101766.25;4920392;29;19926;-84
2024/01/21 10:36:54;;;;;;;;;;;;;;;-4.23;87.03;101753.63;4929221;29;20398;-84
2024/01/21 10:39:23;;;;;;;;;;;;;;;-4.17;87.12;101744.56;4952773;28;19926;-85
2024/01/21 10:41:50;;;;;;;;;;;;;;;-4.02;87.01;101735.31;4952194;28;20009;-84
2024/01/21 10:44:16;;;;;;;;;;;;;;;-4.07;86.84;101731.53;4932911;28;19931;-85
2024/01/21 10:46:43;;;;;;;;;;;;;;;-3.99;87.02;101747.44;4942594;28;19927;-84
2024/01/21 10:49:10;;;;;;;;;;;;;;;-3.86;86.73;101761.16;4930547;28;19933;-85
2024/01/21 10:51:37;;;;;;;;;;;;;;;-3.72;86.94;101763.69;4933860;29;19962;-86
2024/01/21 10:54:04;;;;;;;;;;;;;;;-3.40;86.62;101760.63;4931357;28;19978;-84
2024/01/21 10:56:31;;;;;;;;;;;;;;;-3.24;86.58;101748.75;4943469;28;19933;-84
2024/01/21 10:58:58;;;;;;;;;;;;;;;-3.13;85.93;101740.00;4910018;28;19932;-85
2024/01/21 11:01:26;;;;;;;;;;;;;;;-3.09;86.08;101772.78;4951249;28;19937;-85
2024/01/21 11:04:11;;;;;;;;;;;;;;;-3.10;85.86;101765.00;4935144;28;19926;-85
2024/01/21 11:06:41;;;;;;;;;;;;;;;-3.01;86.18;101761.31;4947130;28;20025;-86
2024/01/21 11:09:08;;;;;;;;;;;;;;;-3.16;86.07;101751.00;4953081;28;19926;-84
2024/01/21 11:11:44;;;;;;;;;;;;;;;-3.08;86.53;101732.59;4955366;28;20249;-83
2024/01/21 11:14:33;;;;;;;;;;;;;;;-3.21;86.03;101731.84;4947554;28;19933;-84
2024/01/21 11:17:01;;;;;;;;;;;;;;;-3.08;86.43;101712.06;4942604;28;19966;-82
2024/01/21 11:19:37;;;;;;;;;;;;;;;-3.18;86.30;101718.31;4913837;28;19927;-83
2024/01/21 11:22:04;;;;;;;;;;;;;;;-3.27;85.95;101713.50;4941071;28;20025;-84
2024/01/21 11:24:40;;;;;;;;;;;;;;;-3.16;86.69;101703.88;4945773;28;19933;-83
2024/01/21 11:27:19;;;;;;;;;;;;;;;-2.98;86.55;101714.38;4948118;28;20037;-82
2024/01/21 11:29:50;;;;;;;;;;;;;;;-2.93;85.80;101687.28;4947633;28;19942;-85
2024/01/21 11:32:28;;;;;;;;;;;;;;;-2.83;86.07;101676.75;4947390;28;19949;-85
2024/01/21 11:34:56;;;;;;;;;;;;;;;-2.67;85.91;101660.53;4942449;28;19994;-83
2024/01/21 11:37:22;;;;;;;;;;;;;;;-2.66;85.86;101654.59;4944666;28;19926;-84
2024/01/21 11:39:49;;;;;;;;;;;;;;;-2.53;86.19;101622.78;4943333;28;19958;-83
2024/01/21 11:42:16;;;;;;;;;;;;;;;-2.38;86.13;101627.03;4946717;28;19935;-83
2024/01/21 11:44:43;;;;;;;;;;;;;;;-2.38;86.22;101624.47;4942541;28;19930;-83
2024/01/21 11:47:10;;;;;;;;;;;;;;;-2.40;86.18;101618.31;4946071;28;19926;-83
2024/01/21 11:49:36;;;;;;;;;;;;;;;-2.22;86.24;101619.38;4926096;28;19931;-83
2024/01/21 11:52:06;;;;;;;;;;;;;;;-2.19;86.60;101629.81;4940694;28;19974;-84
2024/01/21 11:54:34;;;;;;;;;;;;;;;-2.13;86.89;101655.91;4926463;28;20064;-82
2024/01/21 11:57:01;;;;;;;;;;;;;;;-1.99;86.60;101653.22;4935784;28;19927;-85
2024/01/21 11:59:29;;;;;;;;;;;;;;;-1.91;86.91;101646.81;4935747;28;19935;-84
2024/01/21 12:01:59;;;;;;;;;;;;;;;-1.96;86.60;101646.53;4925701;29;20338;-86
2024/01/21 12:04:27;;;;;;;;;;;;;;;-1.87;86.63;101648.72;4938986;28;20434;-82
2024/01/21 12:06:54;;;;;;;;;;;;;;;-1.75;85.88;101659.69;4942223;28;19998;-85
2024/01/21 12:09:22;;;;;;;;;;;;;;;-1.64;85.32;101657.69;4931395;28;19926;-84
2024/01/21 12:11:49;;;;;;;;;;;;;;;-1.38;84.63;101644.47;4952425;28;20020;-85
2024/01/21 12:14:16;;;;;;;;;;;;;;;-1.26;83.93;101639.94;4936825;29;19926;-84
2024/01/21 12:16:43;;;;;;;;;;;;;;;-1.06;83.52;101649.59;4956334;28;20246;-84
2024/01/21 12:19:10;;;;;;;;;;;;;;;-1.24;83.70;101644.38;4936480;28;19926;-85
2024/01/21 12:21:37;;;;;;;;;;;;;;;-1.34;83.68;101625.78;4950692;28;19934;-83
2024/01/21 12:24:04;;;;;;;;;;;;;;;-1.20;84.31;101618.75;4936133;28;19945;-84
2024/01/21 12:26:31;;;;;;;;;;;;;;;-1.10;84.38;101619.31;4949272;28;19985;-82
2024/01/21 12:28:58;;;;;;;;;;;;;;;-0.81;84.70;101632.81;4944297;28;19935;-84
2024/01/21 12:31:29;;;;;;;;;;;;;;;-0.74;84.40;101636.56;4948832;28;19982;-84
2024/01/21 12:33:57;;;;;;;;;;;;;;;-0.77;84.86;101621.84;4950465;28;19926;-84
2024/01/21 12:36:24;;;;;;;;;;;;;;;-0.47;84.75;101624.16;4935170;28;19934;-83